Time;durP1;ratioP1;P1;durP2;ratioP2;P2;SDS_P1;SDS_P2;PMS_P1;PMS_P2;Temp;Humidity;BMP_temperature;BMP_pressure;BME280_temperature;BME280_humidity;BME280_pressure;Samples;Min_cycle;Max_cycle;Signal;HPM_P1;HPM_P2
2022/07/03 00:01:57;;;;;;;6.97;5.40;;;20.80;99.90;;;;;;5052831;28;20024;-85
2022/07/03 00:04:23;;;;;;;7.55;6.60;;;20.80;99.90;;;;;;5052438;28;20036;-85
2022/07/03 00:06:49;;;;;;;7.88;6.50;;;20.80;99.90;;;;;;5052269;28;20036;-85
2022/07/03 00:09:15;;;;;;;10.20;6.13;;;20.80;99.90;;;;;;5052721;28;20031;-85
2022/07/03 00:11:42;;;;;;;9.15;6.28;;;20.80;99.90;;;;;;5052684;28;20028;-85
2022/07/03 00:14:08;;;;;;;11.75;6.65;;;20.80;99.90;;;;;;5051898;28;20028;-86
2022/07/03 00:16:33;;;;;;;7.97;5.85;;;20.70;99.90;;;;;;5065993;28;20020;-86
2022/07/03 00:18:59;;;;;;;7.18;6.35;;;20.70;99.90;;;;;;5072727;28;20400;-86
2022/07/03 00:21:35;;;;;;;11.60;6.43;;;20.60;99.90;;;;;;5072778;28;20070;-85
2022/07/03 00:24:07;;;;;;;11.02;5.78;;;20.60;99.90;;;;;;5061162;28;20040;-86
2022/07/03 00:26:37;;;;;;;7.03;5.50;;;20.50;99.90;;;;;;5052363;28;20068;-85
2022/07/03 00:29:03;;;;;;;11.50;6.88;;;20.50;99.90;;;;;;5052308;28;20048;-86
2022/07/03 00:31:31;;;;;;;10.65;6.53;;;20.50;99.90;;;;;;5048950;28;20082;-85
2022/07/03 00:33:59;;;;;;;7.28;6.30;;;20.40;99.90;;;;;;5052816;28;20028;-86
2022/07/03 00:36:33;;;;;;;8.20;6.50;;;20.30;99.90;;;;;;5052217;28;20054;-85
2022/07/03 00:38:59;;;;;;;9.60;6.07;;;20.30;99.90;;;;;;5052476;28;20032;-85
2022/07/03 00:41:30;;;;;;;9.13;6.38;;;20.20;99.90;;;;;;5052389;28;20046;-85
2022/07/03 00:43:57;;;;;;;10.93;6.93;;;20.10;99.90;;;;;;5051690;28;20501;-85
2022/07/03 00:46:25;;;;;;;8.90;6.65;;;20.00;99.90;;;;;;5052362;28;20032;-84
2022/07/03 00:48:52;;;;;;;8.48;6.68;;;20.00;99.90;;;;;;5052004;28;20028;-85
2022/07/03 00:51:28;;;;;;;10.18;6.95;;;19.90;99.90;;;;;;5070448;28;20028;-85
2022/07/03 00:53:58;;;;;;;6.50;5.82;;;20.00;99.90;;;;;;5059010;28;20035;-85
2022/07/03 00:56:31;;;;;;;11.20;6.55;;;20.00;99.90;;;;;;5059162;28;20032;-85
2022/07/03 00:58:59;;;;;;;8.38;6.78;;;20.00;99.90;;;;;;5058482;28;20056;-86
2022/07/03 01:01:35;;;;;;;8.73;6.25;;;20.00;99.90;;;;;;5058767;28;20017;-85
2022/07/03 01:04:09;;;;;;;7.47;6.60;;;20.00;99.90;;;;;;5059275;28;20029;-85
2022/07/03 01:06:44;;;;;;;9.90;6.47;;;20.00;99.90;;;;;;5059110;28;20074;-85
2022/07/03 01:09:10;;;;;;;8.07;6.03;;;20.00;99.90;;;;;;5076516;28;20020;-85
2022/07/03 01:11:55;;;;;;;10.68;5.85;;;19.90;99.90;;;;;;5076547;28;20028;-85
2022/07/03 01:14:42;;;;;;;13.23;6.03;;;19.90;99.90;;;;;;5059011;28;20131;-85
2022/07/03 01:17:26;;;;;;;7.15;5.78;;;19.90;99.90;;;;;;5058297;28;20036;-85
2022/07/03 01:20:01;;;;;;;7.50;6.22;;;19.80;99.90;;;;;;5058346;28;20025;-84
2022/07/03 01:22:45;;;;;;;8.18;5.60;;;19.80;99.90;;;;;;5058539;28;20028;-85
2022/07/03 01:25:46;;;;;;;11.23;6.47;;;19.80;99.90;;;;;;5058339;28;20029;-86
2022/07/03 01:28:14;;;;;;;13.02;6.28;;;19.90;99.90;;;;;;5016167;28;20139;-85
2022/07/03 01:30:49;;;;;;;7.75;5.80;;;19.80;99.90;;;;;;5058486;28;20043;-84
2022/07/03 01:33:25;;;;;;;7.38;6.35;;;19.90;99.90;;;;;;5058052;28;20021;-83
2022/07/03 01:36:06;;;;;;;10.32;7.15;;;19.80;99.90;;;;;;5058136;28;20405;-85
2022/07/03 01:38:36;;;;;;;8.80;6.38;;;19.80;99.90;;;;;;5076043;28;20036;-86
2022/07/03 01:41:04;;;;;;;11.55;6.03;;;19.80;99.90;;;;;;5076308;28;20111;-85
2022/07/03 01:43:46;;;;;;;9.98;6.47;;;19.80;99.90;;;;;;5058416;28;20112;-85
2022/07/03 01:46:14;;;;;;;7.57;5.80;;;19.90;99.90;;;;;;5058502;28;20048;-86
2022/07/03 01:48:42;;;;;;;7.03;5.78;;;19.80;99.90;;;;;;5058539;28;20028;-84
2022/07/03 01:51:19;;;;;;;9.00;6.18;;;19.80;99.90;;;;;;5075737;28;20021;-85
2022/07/03 01:53:47;;;;;;;10.77;6.30;;;19.80;99.90;;;;;;5058022;28;20388;-85
2022/07/03 01:56:17;;;;;;;8.30;5.97;;;19.70;99.90;;;;;;5055527;28;20783;-84
2022/07/03 01:58:43;;;;;;;8.13;5.93;;;19.70;99.90;;;;;;5055442;28;20062;-86
2022/07/03 02:01:21;;;;;;;7.85;6.00;;;19.60;99.90;;;;;;5055695;28;20048;-85
2022/07/03 02:04:00;;;;;;;10.00;6.63;;;19.50;99.90;;;;;;5054360;28;20028;-86
2022/07/03 02:07:12;;;;;;;9.38;6.97;;;19.50;99.90;;;;;;5072655;28;20041;-86
2022/07/03 02:09:55;;;;;;;8.77;7.15;;;19.40;99.90;;;;;;5054656;28;20173;-86
2022/07/03 02:12:27;;;;;;;14.40;8.07;;;19.40;99.90;;;;;;5054160;28;20036;-85
2022/07/03 02:15:05;;;;;;;11.35;8.98;;;19.40;99.90;;;;;;5072757;28;20024;-86
2022/07/03 02:17:46;;;;;;;13.50;8.18;;;19.40;99.90;;;;;;5071766;28;20060;-86
2022/07/03 02:20:14;;;;;;;12.32;8.65;;;19.40;99.90;;;;;;5054290;28;20028;-85
2022/07/03 02:22:42;;;;;;;14.43;8.82;;;19.40;99.90;;;;;;5054304;28;20025;-85
2022/07/03 02:25:22;;;;;;;10.05;8.00;;;19.40;99.90;;;;;;5054368;28;20028;-85
2022/07/03 02:27:55;;;;;;;11.23;7.55;;;19.40;99.90;;;;;;5054340;28;20056;-85
2022/07/03 02:30:23;;;;;;;13.13;7.53;;;19.30;99.90;;;;;;5054451;28;20403;-86
2022/07/03 02:32:51;;;;;;;9.00;7.88;;;19.40;99.90;;;;;;5054347;28;20481;-85
2022/07/03 02:35:34;;;;;;;10.25;7.07;;;19.30;99.90;;;;;;5053890;28;20025;-85
2022/07/03 02:38:30;;;;;;;18.40;8.10;;;19.30;99.90;;;;;;5072019;28;20524;-85
2022/07/03 02:41:23;;;;;;;9.30;7.18;;;19.40;99.90;;;;;;5051189;28;20028;-85
2022/07/03 02:43:49;;;;;;;8.90;7.35;;;19.30;99.90;;;;;;5071968;28;20498;-86
2022/07/03 02:49:39;;;;;;;8.70;7.60;;;19.40;99.90;;;;;;5071975;28;20805;-85
2022/07/03 02:52:10;;;;;;;9.98;6.45;;;19.40;99.90;;;;;;5056109;28;20108;-87
2022/07/03 02:54:48;;;;;;;12.23;6.63;;;19.40;99.90;;;;;;5053798;28;20028;-84
2022/07/03 02:57:18;;;;;;;10.05;7.65;;;19.30;99.90;;;;;;5054246;28;20516;-85
2022/07/03 02:59:49;;;;;;;9.55;6.65;;;19.40;99.90;;;;;;5053511;28;20027;-85
2022/07/03 03:02:25;;;;;;;13.30;7.30;;;19.40;99.90;;;;;;5053756;28;20078;-86
2022/07/03 03:05:03;;;;;;;10.55;7.43;;;19.40;99.90;;;;;;5090575;28;20400;-86
2022/07/03 03:08:13;;;;;;;7.82;6.53;;;19.40;99.90;;;;;;5091284;28;20032;-86
2022/07/03 03:10:40;;;;;;;8.95;6.85;;;19.40;99.90;;;;;;5089154;28;20020;-86
2022/07/03 03:13:09;;;;;;;7.97;6.50;;;19.30;99.90;;;;;;5050075;28;20095;-86
2022/07/03 03:15:36;;;;;;;9.25;7.53;;;19.30;99.90;;;;;;5049726;28;20025;-86
2022/07/03 03:18:04;;;;;;;11.35;7.47;;;19.20;99.90;;;;;;5052824;28;20082;-85
2022/07/03 03:20:35;;;;;;;9.55;7.13;;;19.20;99.90;;;;;;5052816;28;20029;-86
2022/07/03 03:23:17;;;;;;;8.77;6.88;;;19.20;99.90;;;;;;5070745;28;20031;-86
2022/07/03 03:25:43;;;;;;;11.70;7.30;;;19.20;99.90;;;;;;5053170;28;20024;-86
2022/07/03 03:28:09;;;;;;;9.93;6.68;;;19.20;99.90;;;;;;5070816;28;20116;-86
2022/07/03 03:30:38;;;;;;;13.23;7.38;;;19.20;99.90;;;;;;5070912;28;20128;-86
2022/07/03 03:33:10;;;;;;;18.02;7.20;;;19.30;99.90;;;;;;5053306;28;20031;-85
2022/07/03 03:35:37;;;;;;;8.00;7.00;;;19.30;99.90;;;;;;5052940;28;20032;-86
2022/07/03 03:38:03;;;;;;;9.60;6.75;;;19.40;99.90;;;;;;5053006;28;20059;-87
2022/07/03 03:40:30;;;;;;;9.70;6.30;;;19.40;99.90;;;;;;5070739;28;20086;-86
2022/07/03 03:42:56;;;;;;;8.30;6.70;;;19.40;99.90;;;;;;5053426;28;20035;-86
2022/07/03 03:45:22;;;;;;;9.15;6.20;;;19.50;99.90;;;;;;5051675;28;20627;-87
2022/07/03 03:47:48;;;;;;;7.32;5.55;;;19.50;99.90;;;;;;5051556;28;20040;-84
2022/07/03 03:50:13;;;;;;;7.28;5.05;;;19.70;99.90;;;;;;5068694;28;20028;-84
2022/07/03 03:52:39;;;;;;;8.85;5.95;;;19.80;99.90;;;;;;5072852;28;20047;-83
2022/07/03 03:55:05;;;;;;;10.20;6.50;;;19.80;99.90;;;;;;5064527;28;20017;-83
2022/07/03 03:57:31;;;;;;;6.75;5.82;;;20.00;99.90;;;;;;5050471;28;20112;-84
2022/07/03 03:59:57;;;;;;;7.15;5.30;;;20.20;99.90;;;;;;5049837;28;20577;-84
2022/07/03 04:02:23;;;;;;;6.70;5.43;;;20.30;99.90;;;;;;5049405;28;20028;-84
2022/07/03 04:07:33;;;;;;;6.28;4.85;;;20.60;99.90;;;;;;5049849;28;20048;-84
2022/07/03 04:09:58;;;;;;;6.50;4.90;;;20.80;99.90;;;;;;5049303;28;20024;-83
2022/07/03 04:12:24;;;;;;;7.07;5.75;;;21.00;99.90;;;;;;5052089;28;20500;-83
2022/07/03 04:14:49;;;;;;;7.90;5.10;;;21.20;99.90;;;;;;5052057;28;20028;-82
2022/07/03 04:17:15;;;;;;;8.20;5.90;;;21.40;99.90;;;;;;5051984;28;20028;-84
2022/07/03 04:19:41;;;;;;;32.15;5.50;;;21.60;99.90;;;;;;5051291;28;20178;-83
2022/07/03 04:22:08;;;;;;;6.07;4.90;;;21.80;99.90;;;;;;5043032;28;20037;-84
2022/07/03 04:24:35;;;;;;;9.77;4.97;;;21.90;99.90;;;;;;5052002;28;20672;-83
2022/07/03 04:27:01;;;;;;;8.27;5.43;;;22.10;99.90;;;;;;5051152;28;20166;-83
2022/07/03 04:29:26;;;;;;;9.45;5.05;;;22.30;99.90;;;;;;5051312;28;20139;-83
2022/07/03 04:31:52;;;;;;;7.68;5.05;;;22.30;99.90;;;;;;5051198;28;20025;-83
2022/07/03 04:34:17;;;;;;;9.52;5.63;;;22.40;99.90;;;;;;5051369;28;20501;-83
2022/07/03 04:36:43;;;;;;;12.50;5.97;;;22.50;99.90;;;;;;5050847;28;20135;-83
2022/07/03 04:39:09;;;;;;;10.43;4.93;;;22.50;99.90;;;;;;5050033;28;20111;-83
2022/07/03 04:41:34;;;;;;;7.10;5.22;;;22.60;99.90;;;;;;5068583;28;20047;-82
2022/07/03 04:44:00;;;;;;;7.45;5.53;;;22.70;99.90;;;;;;5068671;28;20077;-85
2022/07/03 04:46:26;;;;;;;5.82;4.55;;;22.80;99.90;;;;;;5050220;28;20032;-86
2022/07/03 04:48:51;;;;;;;8.43;5.28;;;22.90;99.90;;;;;;5050446;28;20521;-85
2022/07/03 04:51:17;;;;;;;5.32;4.50;;;22.90;99.90;;;;;;5050812;28;20237;-85
2022/07/03 04:53:43;;;;;;;7.43;4.88;;;22.90;99.90;;;;;;5052849;28;20029;-85
2022/07/03 04:56:08;;;;;;;11.35;4.80;;;23.00;99.90;;;;;;5054727;28;20115;-85
2022/07/03 04:58:34;;;;;;;9.57;5.25;;;23.00;99.90;;;;;;5055601;28;20035;-86
2022/07/03 05:01:00;;;;;;;13.55;5.88;;;23.10;99.90;;;;;;5073806;28;20029;-86
2022/07/03 05:03:25;;;;;;;7.60;5.47;;;23.10;99.90;;;;;;5070346;28;20021;-85
2022/07/03 05:05:52;;;;;;;10.93;4.85;;;23.20;99.90;;;;;;5050907;28;20480;-85
2022/07/03 05:08:19;;;;;;;8.20;5.50;;;23.30;99.90;;;;;;5050692;28;20566;-86
2022/07/03 05:10:46;;;;;;;8.25;4.07;;;23.30;99.90;;;;;;5051629;28;20500;-85
2022/07/03 05:13:12;;;;;;;6.65;3.88;;;23.50;99.90;;;;;;5049024;28;20737;-85
2022/07/03 05:15:38;;;;;;;6.63;4.85;;;23.60;99.90;;;;;;5046411;28;20033;-84
2022/07/03 05:18:03;;;;;;;9.23;5.13;;;23.80;99.90;;;;;;5047190;28;20067;-86
2022/07/03 05:20:29;;;;;;;12.13;4.65;;;23.90;99.90;;;;;;5046481;28;20082;-84
2022/07/03 05:23:00;;;;;;;9.38;4.60;;;24.20;99.90;;;;;;5047516;28;20107;-86
2022/07/03 05:25:27;;;;;;;8.68;4.90;;;24.50;99.90;;;;;;5067866;28;20465;-85
2022/07/03 05:27:53;;;;;;;7.13;4.45;;;24.80;99.90;;;;;;5050060;28;20483;-83
2022/07/03 05:30:24;;;;;;;5.32;4.45;;;25.00;99.90;;;;;;5049593;28;20089;-84
2022/07/03 05:32:50;;;;;;;6.72;4.85;;;25.20;99.90;;;;;;5047668;28;20032;-82
2022/07/03 05:35:16;;;;;;;9.82;4.88;;;25.20;99.90;;;;;;5049831;28;20178;-83
2022/07/03 05:37:42;;;;;;;9.18;5.47;;;25.30;99.90;;;;;;5050227;28;20076;-84
2022/07/03 05:40:08;;;;;;;10.32;5.38;;;25.30;99.90;;;;;;5071525;28;20032;-84
2022/07/03 05:42:34;;;;;;;11.45;5.03;;;25.30;99.90;;;;;;5054157;28;20035;-84
2022/07/03 05:45:01;;;;;;;8.00;5.22;;;25.50;99.90;;;;;;5053963;28;20029;-84
2022/07/03 05:47:27;;;;;;;6.68;5.20;;;25.70;99.90;;;;;;5053527;28;20044;-85
2022/07/03 05:49:53;;;;;;;9.40;4.97;;;26.00;99.90;;;;;;5054479;28;20021;-85
2022/07/03 05:52:19;;;;;;;6.43;4.70;;;26.20;99.90;;;;;;5054525;28;20037;-84
2022/07/03 05:54:45;;;;;;;7.07;5.22;;;26.60;99.90;;;;;;5053737;28;20021;-86
2022/07/03 05:57:11;;;;;;;6.15;4.55;;;26.90;99.90;;;;;;5053852;28;20044;-86
2022/07/03 05:59:36;;;;;;;8.00;4.47;;;27.80;99.00;;;;;;5054319;28;20036;-81
2022/07/03 06:02:03;;;;;;;6.53;4.20;;;29.20;96.40;;;;;;5051915;28;20040;-81
2022/07/03 06:04:29;;;;;;;5.45;4.47;;;30.70;92.90;;;;;;5068347;28;20028;-81
2022/07/03 06:06:55;;;;;;;7.82;4.30;;;32.10;85.70;;;;;;5068512;28;20047;-81
2022/07/03 06:09:24;;;;;;;5.32;3.83;;;33.10;75.40;;;;;;5069434;28;20029;-84
2022/07/03 06:11:50;;;;;;;4.97;3.78;;;33.90;69.40;;;;;;5068367;28;20032;-82
2022/07/03 06:14:16;;;;;;;7.65;4.38;;;34.80;63.60;;;;;;5069466;28;20040;-83
2022/07/03 06:16:42;;;;;;;6.53;4.05;;;35.20;58.60;;;;;;5050943;28;20060;-82
2022/07/03 06:19:07;;;;;;;5.07;3.30;;;35.90;54.60;;;;;;5068722;28;20032;-83
2022/07/03 06:21:33;;;;;;;7.95;4.05;;;36.60;51.70;;;;;;5051031;28;20021;-84
2022/07/03 06:23:59;;;;;;;5.82;4.05;;;37.00;47.90;;;;;;5068814;28;20112;-82
2022/07/03 06:26:26;;;;;;;10.13;3.60;;;37.30;47.40;;;;;;5069492;28;20515;-83
2022/07/03 06:28:52;;;;;;;6.53;3.63;;;37.40;46.90;;;;;;5051350;28;20136;-85
2022/07/03 06:31:18;;;;;;;6.13;3.90;;;37.90;45.80;;;;;;5051498;28;20626;-84
2022/07/03 06:33:43;;;;;;;8.82;3.45;;;38.40;44.30;;;;;;5050941;28;20032;-83
2022/07/03 06:36:09;;;;;;;4.30;3.20;;;38.50;42.70;;;;;;5050927;28;20047;-82
2022/07/03 06:38:35;;;;;;;5.18;3.35;;;38.60;41.40;;;;;;5051077;28;20024;-83
2022/07/03 06:41:00;;;;;;;6.47;3.30;;;38.70;41.20;;;;;;5069857;28;20032;-85
2022/07/03 06:43:26;;;;;;;7.70;3.40;;;38.80;40.50;;;;;;5069350;28;20032;-84
2022/07/03 06:45:52;;;;;;;4.25;3.40;;;38.80;40.00;;;;;;5051867;28;20527;-84
2022/07/03 06:48:17;;;;;;;5.60;3.67;;;39.00;39.40;;;;;;5068630;28;20077;-82
2022/07/03 06:50:45;;;;;;;4.22;2.83;;;38.70;39.90;;;;;;5067829;28;20741;-84
2022/07/03 06:53:10;;;;;;;3.65;2.92;;;38.70;39.70;;;;;;5069244;28;20492;-84
2022/07/03 06:55:36;;;;;;;4.03;3.42;;;38.80;39.20;;;;;;5051673;28;20031;-84
2022/07/03 06:58:01;;;;;;;5.97;3.70;;;38.80;39.20;;;;;;5068969;28;20032;-84
2022/07/03 07:00:27;;;;;;;5.55;3.13;;;38.90;39.30;;;;;;5051092;28;20032;-85
2022/07/03 07:02:53;;;;;;;5.15;3.22;;;39.00;38.70;;;;;;5051325;28;20132;-84
2022/07/03 07:05:18;;;;;;;5.60;3.13;;;38.60;39.30;;;;;;5068806;28;20029;-86
2022/07/03 07:07:44;;;;;;;7.20;3.55;;;38.80;39.10;;;;;;5050523;28;20083;-83
2022/07/03 07:10:10;;;;;;;5.43;3.38;;;38.50;39.10;;;;;;5051095;28;20021;-84
2022/07/03 07:12:36;;;;;;;4.82;3.13;;;38.50;39.80;;;;;;5050922;28;20039;-85
2022/07/03 07:15:01;;;;;;;4.15;3.75;;;38.60;39.70;;;;;;5051094;28;20484;-83
2022/07/03 07:17:27;;;;;;;5.57;3.72;;;38.90;38.80;;;;;;5049700;28;20191;-85
2022/07/03 07:19:56;;;;;;;6.78;3.45;;;39.10;39.20;;;;;;5068485;28;20278;-84
2022/07/03 07:22:21;;;;;;;9.43;3.90;;;39.10;38.80;;;;;;5068428;28;20519;-84
2022/07/03 07:24:47;;;;;;;5.38;3.33;;;39.00;38.00;;;;;;5049753;28;20025;-84
2022/07/03 07:27:12;;;;;;;5.72;3.50;;;39.30;38.20;;;;;;5051538;28;20044;-85
2022/07/03 07:29:38;;;;;;;5.28;3.38;;;39.00;39.10;;;;;;5052778;28;20032;-85
2022/07/03 07:32:04;;;;;;;10.25;3.65;;;38.80;38.80;;;;;;5052330;28;20028;-85
2022/07/03 07:34:30;;;;;;;3.97;3.40;;;38.90;38.90;;;;;;5050427;28;20058;-83
2022/07/03 07:36:55;;;;;;;5.18;3.53;;;38.90;38.50;;;;;;5067799;28;20067;-84
2022/07/03 07:39:21;;;;;;;8.25;3.60;;;38.80;38.90;;;;;;5067702;28;20017;-83
2022/07/03 07:41:47;;;;;;;6.97;3.50;;;38.30;38.90;;;;;;5049692;28;20032;-83
2022/07/03 07:44:13;;;;;;;6.28;4.03;;;38.40;40.10;;;;;;5050012;28;20043;-83
2022/07/03 07:46:39;;;;;;;5.95;3.33;;;38.60;39.50;;;;;;5067434;28;20089;-84
2022/07/03 07:49:05;;;;;;;4.93;3.45;;;39.00;39.20;;;;;;5067287;28;20131;-82
2022/07/03 07:51:30;;;;;;;5.97;4.10;;;39.30;39.10;;;;;;5067237;28;20045;-84
2022/07/03 07:53:57;;;;;;;5.10;3.63;;;39.30;38.80;;;;;;5050241;28;20369;-83
2022/07/03 07:56:24;;;;;;;5.95;3.92;;;39.00;38.60;;;;;;5067671;28;20020;-84
2022/07/03 07:58:51;;;;;;;11.60;3.92;;;39.00;38.10;;;;;;5049213;28;20523;-84
2022/07/03 08:06:46;;;;;;;;;;;38.80;38.30;;;;;;5067617;28;20047;-84
2022/07/03 08:09:12;;;;;;;8.40;3.53;;;38.60;38.70;;;;;;5049292;28;19912;-83
2022/07/03 08:11:38;;;;;;;3.80;3.17;;;38.50;39.20;;;;;;5048529;28;20032;-82
2022/07/03 08:14:04;;;;;;;10.80;3.60;;;38.80;38.90;;;;;;5049113;28;20400;-82
2022/07/03 08:16:31;;;;;;;5.82;3.45;;;38.70;38.50;;;;;;5048831;28;20485;-83
2022/07/03 08:18:56;;;;;;;6.68;4.00;;;38.80;38.00;;;;;;5066736;28;20103;-84
2022/07/03 08:21:22;;;;;;;8.15;3.83;;;39.00;38.40;;;;;;5067123;28;20150;-84
2022/07/03 08:23:48;;;;;;;7.57;3.30;;;39.00;38.90;;;;;;5048872;28;20381;-83
2022/07/03 08:26:14;;;;;;;6.15;3.75;;;38.90;38.60;;;;;;5066794;28;20041;-83
2022/07/03 08:28:39;;;;;;;5.15;3.45;;;39.20;39.30;;;;;;5048499;28;20867;-83
2022/07/03 08:31:05;;;;;;;4.25;3.20;;;39.40;37.70;;;;;;5048406;28;20036;-84
2022/07/03 08:33:31;;;;;;;5.28;3.38;;;39.30;37.80;;;;;;5066406;28;20111;-84
2022/07/03 08:35:57;;;;;;;5.90;3.55;;;39.10;36.90;;;;;;5048684;28;20071;-84
2022/07/03 08:38:30;;;;;;;7.78;3.30;;;39.10;37.80;;;;;;5050676;28;20032;-86
2022/07/03 08:40:59;;;;;;;3.75;3.20;;;39.40;37.30;;;;;;5071253;28;20488;-86
2022/07/03 08:43:25;;;;;;;4.57;3.05;;;39.60;37.70;;;;;;5072545;28;20076;-86
2022/07/03 08:45:50;;;;;;;4.38;2.83;;;39.50;36.60;;;;;;5072404;28;20514;-86
2022/07/03 08:48:20;;;;;;;5.38;3.25;;;39.50;36.10;;;;;;5052576;28;20032;-86
2022/07/03 08:50:46;;;;;;;6.78;3.33;;;39.50;36.00;;;;;;5063988;28;20036;-87
2022/07/03 08:53:12;;;;;;;7.10;4.10;;;39.30;36.90;;;;;;5049884;28;20035;-83
2022/07/03 08:55:38;;;;;;;5.63;3.75;;;39.30;36.90;;;;;;5048443;28;20032;-83
2022/07/03 08:58:05;;;;;;;5.38;3.97;;;39.50;36.30;;;;;;5049753;28;20097;-88
2022/07/03 09:00:32;;;;;;;3.53;3.00;;;39.50;37.20;;;;;;5051638;28;20033;-80
2022/07/03 09:02:59;;;;;;;4.03;3.00;;;39.40;37.10;;;;;;5065647;28;20030;-83
2022/07/03 09:05:25;;;;;;;5.05;3.17;;;39.50;37.10;;;;;;5049508;28;20032;-83
2022/07/03 09:07:52;;;;;;;4.03;2.97;;;39.30;36.20;;;;;;5050250;28;20102;-85
2022/07/03 09:10:19;;;;;;;5.15;3.20;;;39.20;36.90;;;;;;5049805;28;20409;-84
2022/07/03 09:12:46;;;;;;;7.85;3.40;;;39.20;36.70;;;;;;5049745;28;20033;-82
2022/07/03 09:15:13;;;;;;;5.22;3.10;;;39.00;36.80;;;;;;5070844;28;20055;-84
2022/07/03 09:17:39;;;;;;;4.75;2.97;;;39.40;37.10;;;;;;5070981;28;20039;-82
2022/07/03 09:20:06;;;;;;;6.43;3.10;;;39.40;36.70;;;;;;5076677;28;20063;-84
2022/07/03 09:22:36;;;;;;;5.03;3.33;;;39.40;36.70;;;;;;5053743;28;20056;-85
2022/07/03 09:25:13;;;;;;;5.00;2.50;;;39.50;36.90;;;;;;5053585;28;20566;-83
2022/07/03 09:27:50;;;;;;;8.25;2.95;;;39.70;36.50;;;;;;5053230;28;20523;-83
2022/07/03 09:30:16;;;;;;;5.32;3.90;;;39.60;36.20;;;;;;5070367;28;20029;-82
2022/07/03 09:32:46;;;;;;;7.45;2.80;;;39.60;35.90;;;;;;5069413;28;20040;-81
2022/07/03 09:35:24;;;;;;;3.13;2.83;;;39.70;36.00;;;;;;5052006;28;20086;-83
2022/07/03 09:37:58;;;;;;;4.63;2.90;;;39.60;35.10;;;;;;5070280;28;20711;-82
2022/07/03 09:40:46;;;;;;;7.33;3.07;;;39.70;35.50;;;;;;5051620;28;20036;-84
2022/07/03 09:43:11;;;;;;;4.57;3.00;;;39.90;35.90;;;;;;5070600;28;20110;-85
2022/07/03 09:45:48;;;;;;;5.78;3.10;;;40.10;35.50;;;;;;5052093;28;20511;-83
2022/07/03 09:48:41;;;;;;;8.18;3.17;;;40.20;36.00;;;;;;5050808;28;20485;-83
2022/07/03 09:51:25;;;;;;;7.55;3.30;;;40.20;36.10;;;;;;5047561;28;20028;-82
2022/07/03 09:53:56;;;;;;;8.23;3.40;;;40.30;36.20;;;;;;5069272;28;20044;-82
2022/07/03 09:56:42;;;;;;;5.32;3.00;;;40.20;35.90;;;;;;5069045;28;20028;-82
2022/07/03 09:59:12;;;;;;;4.13;3.25;;;40.30;35.70;;;;;;5050385;28;20041;-80
2022/07/03 10:01:42;;;;;;;7.15;3.40;;;40.40;34.90;;;;;;5051700;28;20036;-83
2022/07/03 10:04:11;;;;;;;4.93;2.92;;;40.30;34.60;;;;;;5050608;28;20032;-83
2022/07/03 10:06:47;;;;;;;5.95;2.50;;;40.10;35.10;;;;;;5050496;28;20043;-83
2022/07/03 10:09:18;;;;;;;4.65;2.85;;;39.70;35.00;;;;;;5051464;28;20138;-82
2022/07/03 10:11:45;;;;;;;3.05;2.75;;;38.90;35.40;;;;;;5050718;28;20021;-82
2022/07/03 10:14:16;;;;;;;5.45;2.90;;;38.30;36.60;;;;;;5051491;28;20085;-82
2022/07/03 10:16:42;;;;;;;3.40;2.72;;;37.80;36.90;;;;;;5069557;28;20367;-83
2022/07/03 10:19:28;;;;;;;3.70;2.70;;;37.40;37.00;;;;;;5049988;28;20052;-83
2022/07/03 10:22:01;;;;;;;3.90;3.03;;;37.10;37.30;;;;;;5050533;28;20030;-82
2022/07/03 10:24:29;;;;;;;5.68;2.53;;;36.50;38.50;;;;;;5049683;28;20089;-82
2022/07/03 10:26:57;;;;;;;4.93;2.75;;;36.40;38.00;;;;;;5051291;28;20058;-84
2022/07/03 10:29:25;;;;;;;8.73;2.97;;;36.20;38.60;;;;;;5069774;28;20508;-83
2022/07/03 10:31:51;;;;;;;3.65;2.83;;;36.10;38.40;;;;;;5052080;28;20583;-83
2022/07/03 10:34:21;;;;;;;5.30;2.45;;;35.90;38.30;;;;;;5052159;28;20365;-84
2022/07/03 10:36:59;;;;;;;5.82;2.75;;;35.80;38.80;;;;;;5052170;28;20028;-83
2022/07/03 10:39:40;;;;;;;4.38;2.13;;;35.80;39.50;;;;;;5052810;28;20025;-85
2022/07/03 10:45:13;;;;;;;4.05;3.03;;;35.50;39.10;;;;;;5070084;28;20519;-82
2022/07/03 10:47:50;;;;;;;8.27;2.92;;;35.50;39.40;;;;;;5050731;28;20036;-85
2022/07/03 10:50:21;;;;;;;4.65;2.50;;;35.40;37.40;;;;;;5051564;28;20086;-85
2022/07/03 10:52:48;;;;;;;5.72;2.13;;;35.30;37.70;;;;;;5047603;28;20041;-82
2022/07/03 10:55:15;;;;;;;4.28;2.40;;;35.10;37.30;;;;;;5038804;28;20075;-83
2022/07/03 10:57:43;;;;;;;9.48;2.78;;;34.90;37.60;;;;;;5042515;28;20264;-83
2022/07/03 11:00:14;;;;;;;4.38;2.75;;;34.80;39.30;;;;;;5057298;28;20041;-84
2022/07/03 11:02:41;;;;;;;5.25;2.22;;;34.70;38.70;;;;;;5044989;28;20045;-83
2022/07/03 11:05:12;;;;;;;3.42;2.10;;;34.70;38.30;;;;;;5046545;28;20450;-84
2022/07/03 11:08:04;;;;;;;4.80;2.33;;;34.60;37.10;;;;;;5042404;28;20119;-83
2022/07/03 11:10:32;;;;;;;4.53;2.30;;;34.60;38.00;;;;;;5040450;28;20033;-83
2022/07/03 11:13:20;;;;;;;4.20;2.00;;;34.60;38.00;;;;;;5044189;28;20043;-83
2022/07/03 11:15:52;;;;;;;7.45;2.55;;;34.60;38.10;;;;;;5037047;28;20068;-83
2022/07/03 11:18:27;;;;;;;10.63;4.05;;;34.80;39.10;;;;;;5052909;28;20420;-84
2022/07/03 11:20:53;;;;;;;9.73;2.88;;;34.80;37.80;;;;;;5041785;28;20071;-84
2022/07/03 11:23:30;;;;;;;9.20;2.95;;;34.70;36.30;;;;;;5056902;28;20068;-82
2022/07/03 11:25:57;;;;;;;4.72;2.13;;;34.60;37.30;;;;;;5040810;28;20048;-85
2022/07/03 11:28:32;;;;;;;5.85;2.50;;;34.70;38.30;;;;;;5038260;28;20143;-83
2022/07/03 11:31:10;;;;;;;3.60;2.30;;;34.70;38.40;;;;;;5022027;28;20084;-84
2022/07/03 11:33:42;;;;;;;9.77;2.55;;;34.80;38.60;;;;;;5034532;28;20034;-83
2022/07/03 11:36:11;;;;;;;5.60;2.47;;;34.70;39.10;;;;;;5038512;28;20510;-83
2022/07/03 11:38:37;;;;;;;10.55;2.53;;;34.60;38.30;;;;;;5038103;28;20041;-84
2022/07/03 11:41:07;;;;;;;5.40;2.28;;;34.60;38.30;;;;;;5012635;28;20040;-84
2022/07/03 11:43:34;;;;;;;10.32;2.60;;;34.60;38.80;;;;;;5022902;28;20123;-84
2022/07/03 11:45:59;;;;;;;5.28;2.50;;;34.60;38.00;;;;;;5036028;28;20060;-84
2022/07/03 11:48:26;;;;;;;4.30;2.55;;;34.60;38.10;;;;;;5035141;28;21023;-84
2022/07/03 11:50:52;;;;;;;15.15;2.70;;;34.60;38.40;;;;;;5031914;28;20041;-85
2022/07/03 11:53:31;;;;;;;4.38;2.88;;;34.60;37.80;;;;;;5038991;28;20037;-84
2022/07/03 11:55:58;;;;;;;6.57;2.47;;;34.40;37.60;;;;;;5041484;28;20038;-84
2022/07/03 11:58:25;;;;;;;3.58;2.40;;;34.40;38.60;;;;;;5019641;28;20037;-84
2022/07/03 12:00:52;;;;;;;14.68;2.80;;;34.50;39.30;;;;;;5008572;28;20030;-85
2022/07/03 12:03:26;;;;;;;8.02;3.35;;;34.40;39.20;;;;;;5017091;28;20064;-85
2022/07/03 12:05:58;;;;;;;14.93;3.50;;;34.40;39.30;;;;;;5021560;28;20042;-83
2022/07/03 12:08:32;;;;;;;6.88;3.30;;;34.20;39.40;;;;;;5009824;28;20048;-82
2022/07/03 12:11:08;;;;;;;17.05;3.28;;;33.90;39.90;;;;;;5035491;28;20074;-83
2022/07/03 12:13:34;;;;;;;5.60;2.65;;;33.80;41.60;;;;;;5015409;28;20042;-83
2022/07/03 12:16:08;;;;;;;7.53;3.10;;;33.80;41.60;;;;;;5023432;28;20100;-83
2022/07/03 12:18:53;;;;;;;5.07;3.22;;;33.90;40.50;;;;;;5026350;28;20110;-84
2022/07/03 12:21:20;;;;;;;4.97;3.00;;;33.80;40.70;;;;;;5021394;28;20048;-83
2022/07/03 12:23:46;;;;;;;5.05;2.20;;;33.90;41.80;;;;;;5036286;28;20510;-83
2022/07/03 12:26:12;;;;;;;8.57;2.70;;;34.00;40.50;;;;;;5018777;28;20084;-82
2022/07/03 12:28:39;;;;;;;8.18;2.90;;;34.20;40.40;;;;;;5016935;28;20045;-83
2022/07/03 12:31:05;;;;;;;8.20;3.20;;;34.20;40.20;;;;;;5033782;28;20032;-83
2022/07/03 12:33:35;;;;;;;5.38;3.00;;;34.40;39.90;;;;;;5019210;28;20136;-83
2022/07/03 12:36:09;;;;;;;8.65;2.95;;;34.40;39.80;;;;;;5020376;28;20073;-84
2022/07/03 12:38:39;;;;;;;8.52;3.00;;;34.40;38.40;;;;;;4997792;28;20041;-83
2022/07/03 12:41:10;;;;;;;10.75;2.45;;;34.40;37.80;;;;;;5041758;28;20045;-84
2022/07/03 12:43:40;;;;;;;6.57;2.17;;;34.40;38.30;;;;;;5029773;28;20029;-85
2022/07/03 12:46:22;;;;;;;7.05;2.25;;;34.40;39.60;;;;;;5012514;28;20052;-84
2022/07/03 12:48:50;;;;;;;7.95;2.75;;;34.60;39.20;;;;;;5023032;28;20043;-85
2022/07/03 12:51:35;;;;;;;6.65;2.50;;;34.60;38.70;;;;;;5030192;28;20036;-84
2022/07/03 12:54:01;;;;;;;8.45;2.47;;;34.70;38.60;;;;;;5019316;28;20056;-84
2022/07/03 12:56:26;;;;;;;6.50;2.72;;;34.80;38.00;;;;;;5030966;28;20029;-85
2022/07/03 13:01:36;;;;;;;3.90;2.22;;;34.80;38.10;;;;;;5048134;28;20126;-84
2022/07/03 13:04:03;;;;;;;5.50;2.08;;;34.80;37.40;;;;;;5047865;28;20017;-84
2022/07/03 13:06:29;;;;;;;11.07;2.42;;;34.70;37.30;;;;;;5023734;28;20072;-85
2022/07/03 13:09:01;;;;;;;8.68;2.75;;;34.70;36.30;;;;;;5031005;28;20569;-85
2022/07/03 13:11:41;;;;;;;5.90;2.22;;;34.60;35.60;;;;;;5031761;28;20120;-84
2022/07/03 13:14:08;;;;;;;9.52;2.00;;;34.60;36.80;;;;;;5028039;28;20458;-85
2022/07/03 13:16:40;;;;;;;9.18;1.83;;;34.50;36.60;;;;;;5028197;28;20078;-85